sensor_id;sensor_type;location;lat;lon;timestamp;temperature;humidity
67194;DHT22;54121;53.508;49.422;2023-03-31T00:01:10;9.90;45.60
67194;DHT22;54121;53.508;49.422;2023-03-31T00:03:37;12.00;46.20
67194;DHT22;54121;53.508;49.422;2023-03-31T00:06:08;10.90;45.70
67194;DHT22;54121;53.508;49.422;2023-03-31T00:08:45;12.00;46.00
67194;DHT22;54121;53.508;49.422;2023-03-31T00:11:16;12.20;45.20
67194;DHT22;54121;53.508;49.422;2023-03-31T00:13:42;11.70;45.30
67194;DHT22;54121;53.508;49.422;2023-03-31T00:16:09;11.40;45.50
67194;DHT22;54121;53.508;49.422;2023-03-31T00:18:37;11.70;45.10
67194;DHT22;54121;53.508;49.422;2023-03-31T00:21:07;11.10;45.50
67194;DHT22;54121;53.508;49.422;2023-03-31T00:23:34;10.70;47.40
67194;DHT22;54121;53.508;49.422;2023-03-31T00:26:02;10.40;48.00
67194;DHT22;54121;53.508;49.422;2023-03-31T00:28:29;10.90;46.50
67194;DHT22;54121;53.508;49.422;2023-03-31T00:30:58;9.40;45.80
67194;DHT22;54121;53.508;49.422;2023-03-31T00:33:25;10.40;47.60
67194;DHT22;54121;53.508;49.422;2023-03-31T00:35:54;10.00;47.00
67194;DHT22;54121;53.508;49.422;2023-03-31T00:38:29;11.00;45.80
67194;DHT22;54121;53.508;49.422;2023-03-31T00:40:57;11.20;45.10
67194;DHT22;54121;53.508;49.422;2023-03-31T00:45:55;11.10;44.30
67194;DHT22;54121;53.508;49.422;2023-03-31T00:48:24;11.20;44.10
67194;DHT22;54121;53.508;49.422;2023-03-31T00:50:55;11.20;44.10
67194;DHT22;54121;53.508;49.422;2023-03-31T00:53:23;11.40;43.80
67194;DHT22;54121;53.508;49.422;2023-03-31T00:55:54;11.60;43.00
67194;DHT22;54121;53.508;49.422;2023-03-31T00:58:27;11.50;42.90
67194;DHT22;54121;53.508;49.422;2023-03-31T01:00:58;11.10;43.90
67194;DHT22;54121;53.508;49.422;2023-03-31T01:03:25;10.80;45.00
67194;DHT22;54121;53.508;49.422;2023-03-31T01:05:55;11.30;43.30
67194;DHT22;54121;53.508;49.422;2023-03-31T01:08:25;11.10;43.70
67194;DHT22;54121;53.508;49.422;2023-03-31T01:10:53;11.40;42.90
67194;DHT22;54121;53.508;49.422;2023-03-31T01:13:22;11.20;43.90
67194;DHT22;54121;53.508;49.422;2023-03-31T01:15:49;10.90;43.80
67194;DHT22;54121;53.508;49.422;2023-03-31T01:18:17;11.20;43.60
67194;DHT22;54121;53.508;49.422;2023-03-31T01:29:07;11.60;42.00
67194;DHT22;54121;53.508;49.422;2023-03-31T01:36:40;11.60;41.80
67194;DHT22;54121;53.508;49.422;2023-03-31T01:44:33;11.60;41.50
67194;DHT22;54121;53.508;49.422;2023-03-31T01:47:15;11.50;41.80
67194;DHT22;54121;53.508;49.422;2023-03-31T01:49:54;11.60;41.60
67194;DHT22;54121;53.508;49.422;2023-03-31T01:52:26;11.50;41.40
67194;DHT22;54121;53.508;49.422;2023-03-31T01:54:57;11.60;41.40
67194;DHT22;54121;53.508;49.422;2023-03-31T01:57:30;11.30;42.60
67194;DHT22;54121;53.508;49.422;2023-03-31T02:00:10;11.30;41.90
67194;DHT22;54121;53.508;49.422;2023-03-31T02:02:59;11.20;41.80
67194;DHT22;54121;53.508;49.422;2023-03-31T02:05:29;10.50;42.40
67194;DHT22;54121;53.508;49.422;2023-03-31T02:07:58;11.60;41.60
67194;DHT22;54121;53.508;49.422;2023-03-31T02:10:31;11.60;41.70
67194;DHT22;54121;53.508;49.422;2023-03-31T02:12:58;11.70;41.40
67194;DHT22;54121;53.508;49.422;2023-03-31T02:15:32;11.20;42.20
67194;DHT22;54121;53.508;49.422;2023-03-31T02:18:00;11.40;41.80
67194;DHT22;54121;53.508;49.422;2023-03-31T02:20:31;11.50;41.50
67194;DHT22;54121;53.508;49.422;2023-03-31T02:22:58;11.30;41.40
67194;DHT22;54121;53.508;49.422;2023-03-31T02:25:28;10.10;40.80
67194;DHT22;54121;53.508;49.422;2023-03-31T02:28:02;11.50;41.20
67194;DHT22;54121;53.508;49.422;2023-03-31T02:30:37;11.40;41.40
67194;DHT22;54121;53.508;49.422;2023-03-31T02:33:11;11.50;41.40
67194;DHT22;54121;53.508;49.422;2023-03-31T02:35:41;11.20;41.40
67194;DHT22;54121;53.508;49.422;2023-03-31T02:38:07;10.90;42.70
67194;DHT22;54121;53.508;49.422;2023-03-31T02:40:37;9.70;42.70
67194;DHT22;54121;53.508;49.422;2023-03-31T02:43:03;10.90;42.60
67194;DHT22;54121;53.508;49.422;2023-03-31T02:48:00;10.70;42.70
67194;DHT22;54121;53.508;49.422;2023-03-31T02:50:28;10.70;42.80
67194;DHT22;54121;53.508;49.422;2023-03-31T02:53:12;10.90;42.60
67194;DHT22;54121;53.508;49.422;2023-03-31T02:58:22;11.00;42.00
67194;DHT22;54121;53.508;49.422;2023-03-31T03:01:06;11.10;41.80
67194;DHT22;54121;53.508;49.422;2023-03-31T03:03:39;11.10;41.60
67194;DHT22;54121;53.508;49.422;2023-03-31T03:11:18;11.20;41.60
67194;DHT22;54121;53.508;49.422;2023-03-31T03:13:50;11.20;41.40
67194;DHT22;54121;53.508;49.422;2023-03-31T03:16:23;11.20;41.20
67194;DHT22;54121;53.508;49.422;2023-03-31T03:18:59;11.30;41.20
67194;DHT22;54121;53.508;49.422;2023-03-31T03:21:29;11.30;41.00
67194;DHT22;54121;53.508;49.422;2023-03-31T03:23:55;11.40;41.10
67194;DHT22;54121;53.508;49.422;2023-03-31T03:26:24;11.30;41.30
67194;DHT22;54121;53.508;49.422;2023-03-31T03:28:55;10.90;41.70
67194;DHT22;54121;53.508;49.422;2023-03-31T03:31:22;11.10;41.60
67194;DHT22;54121;53.508;49.422;2023-03-31T03:33:49;11.10;41.30
67194;DHT22;54121;53.508;49.422;2023-03-31T03:36:18;11.30;41.10
67194;DHT22;54121;53.508;49.422;2023-03-31T03:38:44;11.30;40.90
67194;DHT22;54121;53.508;49.422;2023-03-31T03:41:13;11.30;41.10
67194;DHT22;54121;53.508;49.422;2023-03-31T03:43:48;11.20;40.60
67194;DHT22;54121;53.508;49.422;2023-03-31T03:46:18;11.20;41.00
67194;DHT22;54121;53.508;49.422;2023-03-31T03:48:47;11.10;41.10
67194;DHT22;54121;53.508;49.422;2023-03-31T03:51:16;11.30;40.90
67194;DHT22;54121;53.508;49.422;2023-03-31T03:53:42;11.50;40.60
67194;DHT22;54121;53.508;49.422;2023-03-31T03:56:12;11.50;40.60
67194;DHT22;54121;53.508;49.422;2023-03-31T03:58:38;10.90;42.20
67194;DHT22;54121;53.508;49.422;2023-03-31T04:01:05;11.40;40.80
67194;DHT22;54121;53.508;49.422;2023-03-31T04:03:31;11.60;40.60
67194;DHT22;54121;53.508;49.422;2023-03-31T04:06:00;10.20;40.20
67194;DHT22;54121;53.508;49.422;2023-03-31T04:08:27;12.20;39.70
67194;DHT22;54121;53.508;49.422;2023-03-31T04:10:56;12.60;38.40
67194;DHT22;54121;53.508;49.422;2023-03-31T04:13:22;13.20;37.10
67194;DHT22;54121;53.508;49.422;2023-03-31T04:15:49;13.20;36.40
67194;DHT22;54121;53.508;49.422;2023-03-31T04:18:16;12.30;34.20
67194;DHT22;54121;53.508;49.422;2023-03-31T04:20:49;14.10;34.20
67194;DHT22;54121;53.508;49.422;2023-03-31T04:23:20;14.20;33.90
67194;DHT22;54121;53.508;49.422;2023-03-31T04:25:53;14.80;33.60
67194;DHT22;54121;53.508;49.422;2023-03-31T04:28:20;14.90;31.90
67194;DHT22;54121;53.508;49.422;2023-03-31T04:30:47;15.50;31.40
67194;DHT22;54121;53.508;49.422;2023-03-31T04:33:16;15.80;30.80
67194;DHT22;54121;53.508;49.422;2023-03-31T04:35:44;15.60;30.30
67194;DHT22;54121;53.508;49.422;2023-03-31T04:38:18;16.00;30.10
67194;DHT22;54121;53.508;49.422;2023-03-31T04:40:49;16.30;29.80
67194;DHT22;54121;53.508;49.422;2023-03-31T04:43:16;16.60;29.70
67194;DHT22;54121;53.508;49.422;2023-03-31T04:45:45;16.70;30.00
67194;DHT22;54121;53.508;49.422;2023-03-31T04:48:12;16.70;30.10
67194;DHT22;54121;53.508;49.422;2023-03-31T04:50:41;17.00;29.50
67194;DHT22;54121;53.508;49.422;2023-03-31T04:53:08;17.40;29.90
67194;DHT22;54121;53.508;49.422;2023-03-31T04:55:40;17.70;29.30
67194;DHT22;54121;53.508;49.422;2023-03-31T04:58:06;17.60;29.50
67194;DHT22;54121;53.508;49.422;2023-03-31T05:00:33;16.00;28.40
67194;DHT22;54121;53.508;49.422;2023-03-31T05:02:59;17.60;29.60
67194;DHT22;54121;53.508;49.422;2023-03-31T05:05:25;17.20;30.70
67194;DHT22;54121;53.508;49.422;2023-03-31T05:07:54;17.40;30.40
67194;DHT22;54121;53.508;49.422;2023-03-31T05:10:21;17.70;30.00
67194;DHT22;54121;53.508;49.422;2023-03-31T05:12:50;16.50;32.50
67194;DHT22;54121;53.508;49.422;2023-03-31T05:15:16;17.00;35.30
67194;DHT22;54121;53.508;49.422;2023-03-31T05:17:42;15.60;33.60
67194;DHT22;54121;53.508;49.422;2023-03-31T05:20:09;15.20;32.30
67194;DHT22;54121;53.508;49.422;2023-03-31T05:22:37;17.50;33.70
67194;DHT22;54121;53.508;49.422;2023-03-31T05:25:04;16.90;34.90
67194;DHT22;54121;53.508;49.422;2023-03-31T05:27:31;17.00;33.90
67194;DHT22;54121;53.508;49.422;2023-03-31T05:29:57;17.90;33.20
67194;DHT22;54121;53.508;49.422;2023-03-31T05:32:24;17.60;33.10
67194;DHT22;54121;53.508;49.422;2023-03-31T05:34:52;17.30;33.20
67194;DHT22;54121;53.508;49.422;2023-03-31T05:37:25;17.60;33.00
67194;DHT22;54121;53.508;49.422;2023-03-31T05:39:52;17.80;32.90
67194;DHT22;54121;53.508;49.422;2023-03-31T05:42:20;17.60;32.20
67194;DHT22;54121;53.508;49.422;2023-03-31T05:44:47;17.80;31.80
67194;DHT22;54121;53.508;49.422;2023-03-31T05:47:13;18.30;31.10
67194;DHT22;54121;53.508;49.422;2023-03-31T05:49:43;18.80;29.90
67194;DHT22;54121;53.508;49.422;2023-03-31T05:52:09;17.50;30.60
67194;DHT22;54121;53.508;49.422;2023-03-31T05:54:39;17.50;31.70
67194;DHT22;54121;53.508;49.422;2023-03-31T05:57:05;17.80;30.80
67194;DHT22;54121;53.508;49.422;2023-03-31T05:59:34;17.20;32.00
67194;DHT22;54121;53.508;49.422;2023-03-31T06:02:03;17.60;31.10
67194;DHT22;54121;53.508;49.422;2023-03-31T06:04:32;16.40;29.90
67194;DHT22;54121;53.508;49.422;2023-03-31T06:07:02;17.60;29.20
67194;DHT22;54121;53.508;49.422;2023-03-31T06:09:32;17.40;31.30
67194;DHT22;54121;53.508;49.422;2023-03-31T06:11:59;17.20;30.50
67194;DHT22;54121;53.508;49.422;2023-03-31T06:14:26;17.40;31.60
67194;DHT22;54121;53.508;49.422;2023-03-31T06:16:52;18.00;30.00
67194;DHT22;54121;53.508;49.422;2023-03-31T06:19:21;17.80;30.80
67194;DHT22;54121;53.508;49.422;2023-03-31T06:21:47;18.20;29.80
67194;DHT22;54121;53.508;49.422;2023-03-31T06:24:14;18.40;29.40
67194;DHT22;54121;53.508;49.422;2023-03-31T06:26:40;18.20;29.70
67194;DHT22;54121;53.508;49.422;2023-03-31T06:29:08;18.30;29.50
67194;DHT22;54121;53.508;49.422;2023-03-31T06:31:37;16.80;28.70
67194;DHT22;54121;53.508;49.422;2023-03-31T06:34:06;18.60;29.40
67194;DHT22;54121;53.508;49.422;2023-03-31T06:36:32;18.60;28.70
67194;DHT22;54121;53.508;49.422;2023-03-31T06:39:01;18.50;29.20
67194;DHT22;54121;53.508;49.422;2023-03-31T06:41:27;18.70;29.10
67194;DHT22;54121;53.508;49.422;2023-03-31T06:43:58;18.90;28.70
67194;DHT22;54121;53.508;49.422;2023-03-31T06:46:27;18.70;28.50
67194;DHT22;54121;53.508;49.422;2023-03-31T06:48:56;17.10;27.40
67194;DHT22;54121;53.508;49.422;2023-03-31T06:51:25;18.90;28.00
67194;DHT22;54121;53.508;49.422;2023-03-31T06:53:53;18.90;28.30
67194;DHT22;54121;53.508;49.422;2023-03-31T06:56:39;19.10;28.00
67194;DHT22;54121;53.508;49.422;2023-03-31T06:59:09;19.60;27.10
67194;DHT22;54121;53.508;49.422;2023-03-31T07:01:35;19.20;27.90
67194;DHT22;54121;53.508;49.422;2023-03-31T07:04:04;19.90;27.20
67194;DHT22;54121;53.508;49.422;2023-03-31T07:06:33;19.60;27.50
67194;DHT22;54121;53.508;49.422;2023-03-31T07:09:04;19.80;27.10
67194;DHT22;54121;53.508;49.422;2023-03-31T07:11:36;20.40;26.20
67194;DHT22;54121;53.508;49.422;2023-03-31T07:14:05;18.90;25.10
67194;DHT22;54121;53.508;49.422;2023-03-31T07:16:33;20.30;26.40
67194;DHT22;54121;53.508;49.422;2023-03-31T07:19:01;20.70;25.90
67194;DHT22;54121;53.508;49.422;2023-03-31T07:21:31;20.20;26.50
67194;DHT22;54121;53.508;49.422;2023-03-31T07:23:57;19.90;26.80
67194;DHT22;54121;53.508;49.422;2023-03-31T07:26:26;19.50;26.60
67194;DHT22;54121;53.508;49.422;2023-03-31T07:28:55;19.80;27.10
67194;DHT22;54121;53.508;49.422;2023-03-31T07:31:26;19.20;27.70
67194;DHT22;54121;53.508;49.422;2023-03-31T07:33:55;19.70;27.10
67194;DHT22;54121;53.508;49.422;2023-03-31T07:36:21;20.30;26.30
67194;DHT22;54121;53.508;49.422;2023-03-31T07:38:50;20.20;26.60
67194;DHT22;54121;53.508;49.422;2023-03-31T07:41:19;20.00;26.90
67194;DHT22;54121;53.508;49.422;2023-03-31T07:43:46;20.10;26.70
67194;DHT22;54121;53.508;49.422;2023-03-31T07:46:21;20.00;26.80
67194;DHT22;54121;53.508;49.422;2023-03-31T07:48:51;20.00;26.40
67194;DHT22;54121;53.508;49.422;2023-03-31T07:51:21;20.20;26.50
67194;DHT22;54121;53.508;49.422;2023-03-31T07:53:50;19.90;26.90
67194;DHT22;54121;53.508;49.422;2023-03-31T07:56:21;19.90;26.90
67194;DHT22;54121;53.508;49.422;2023-03-31T07:58:47;20.10;26.90
67194;DHT22;54121;53.508;49.422;2023-03-31T08:01:17;19.40;27.70
67194;DHT22;54121;53.508;49.422;2023-03-31T08:03:46;19.40;28.00
67194;DHT22;54121;53.508;49.422;2023-03-31T08:06:17;19.30;27.80
67194;DHT22;54121;53.508;49.422;2023-03-31T08:08:45;19.30;28.10
67194;DHT22;54121;53.508;49.422;2023-03-31T08:11:14;19.90;27.40
67194;DHT22;54121;53.508;49.422;2023-03-31T08:13:43;20.00;26.80
67194;DHT22;54121;53.508;49.422;2023-03-31T08:16:12;19.90;27.20
67194;DHT22;54121;53.508;49.422;2023-03-31T08:18:41;19.80;27.10
67194;DHT22;54121;53.508;49.422;2023-03-31T08:21:07;19.90;27.60
67194;DHT22;54121;53.508;49.422;2023-03-31T08:23:35;20.30;26.90
67194;DHT22;54121;53.508;49.422;2023-03-31T08:26:11;19.90;27.70
67194;DHT22;54121;53.508;49.422;2023-03-31T08:28:40;19.80;29.20
67194;DHT22;54121;53.508;49.422;2023-03-31T08:31:06;19.90;28.10
67194;DHT22;54121;53.508;49.422;2023-03-31T08:33:35;20.40;27.60
67194;DHT22;54121;53.508;49.422;2023-03-31T08:36:05;19.90;28.50
67194;DHT22;54121;53.508;49.422;2023-03-31T08:38:33;20.40;28.70
67194;DHT22;54121;53.508;49.422;2023-03-31T08:41:03;19.60;29.70
67194;DHT22;54121;53.508;49.422;2023-03-31T08:43:33;20.40;29.90
67194;DHT22;54121;53.508;49.422;2023-03-31T08:46:03;20.30;29.30
67194;DHT22;54121;53.508;49.422;2023-03-31T08:48:33;18.20;29.30
67194;DHT22;54121;53.508;49.422;2023-03-31T08:51:13;20.60;29.50
67194;DHT22;54121;53.508;49.422;2023-03-31T08:53:51;19.90;30.00
67194;DHT22;54121;53.508;49.422;2023-03-31T08:56:21;19.90;30.00
67194;DHT22;54121;53.508;49.422;2023-03-31T08:58:50;19.90;30.00
67194;DHT22;54121;53.508;49.422;2023-03-31T09:07:26;19.60;30.60
67194;DHT22;54121;53.508;49.422;2023-03-31T09:15:13;20.10;29.70
67194;DHT22;54121;53.508;49.422;2023-03-31T09:17:43;20.00;29.70
67194;DHT22;54121;53.508;49.422;2023-03-31T09:22:47;19.90;29.10
67194;DHT22;54121;53.508;49.422;2023-03-31T09:27:44;20.30;29.10
67194;DHT22;54121;53.508;49.422;2023-03-31T09:30:25;19.90;29.70
67194;DHT22;54121;53.508;49.422;2023-03-31T09:32:53;19.50;29.90
67194;DHT22;54121;53.508;49.422;2023-03-31T09:35:26;20.00;29.20
67194;DHT22;54121;53.508;49.422;2023-03-31T09:37:58;19.80;30.00
67194;DHT22;54121;53.508;49.422;2023-03-31T09:40:27;19.70;31.10
67194;DHT22;54121;53.508;49.422;2023-03-31T09:42:57;19.60;30.00
67194;DHT22;54121;53.508;49.422;2023-03-31T09:45:26;19.90;30.10
67194;DHT22;54121;53.508;49.422;2023-03-31T09:47:55;20.00;30.00
67194;DHT22;54121;53.508;49.422;2023-03-31T09:50:25;20.20;30.60
67194;DHT22;54121;53.508;49.422;2023-03-31T09:52:54;20.00;30.40
67194;DHT22;54121;53.508;49.422;2023-03-31T09:57:47;19.70;31.50
67194;DHT22;54121;53.508;49.422;2023-03-31T10:00:18;19.70;30.90
67194;DHT22;54121;53.508;49.422;2023-03-31T10:02:48;20.10;30.80
67194;DHT22;54121;53.508;49.422;2023-03-31T10:07:49;19.60;30.90
67194;DHT22;54121;53.508;49.422;2023-03-31T10:10:28;19.80;30.20
67194;DHT22;54121;53.508;49.422;2023-03-31T10:12:58;19.90;30.20
67194;DHT22;54121;53.508;49.422;2023-03-31T10:15:27;19.90;30.30
67194;DHT22;54121;53.508;49.422;2023-03-31T10:17:56;20.10;29.80
67194;DHT22;54121;53.508;49.422;2023-03-31T10:20:29;19.40;31.80
67194;DHT22;54121;53.508;49.422;2023-03-31T10:22:58;20.20;30.10
67194;DHT22;54121;53.508;49.422;2023-03-31T10:25:29;20.00;29.80
67194;DHT22;54121;53.508;49.422;2023-03-31T10:27:59;19.30;31.80
67194;DHT22;54121;53.508;49.422;2023-03-31T10:30:29;20.20;30.00
67194;DHT22;54121;53.508;49.422;2023-03-31T10:33:00;20.50;28.90
67194;DHT22;54121;53.508;49.422;2023-03-31T10:35:35;19.80;30.30
67194;DHT22;54121;53.508;49.422;2023-03-31T10:38:12;19.30;31.40
67194;DHT22;54121;53.508;49.422;2023-03-31T10:40:47;19.00;32.90
67194;DHT22;54121;53.508;49.422;2023-03-31T10:43:15;19.50;32.00
67194;DHT22;54121;53.508;49.422;2023-03-31T10:45:49;20.10;30.80
67194;DHT22;54121;53.508;49.422;2023-03-31T10:48:18;20.70;29.30
67194;DHT22;54121;53.508;49.422;2023-03-31T10:50:49;20.10;28.70
67194;DHT22;54121;53.508;49.422;2023-03-31T10:53:18;19.70;30.50
67194;DHT22;54121;53.508;49.422;2023-03-31T11:00:56;21.50;28.30
67194;DHT22;54121;53.508;49.422;2023-03-31T11:03:40;21.80;27.50
67194;DHT22;54121;53.508;49.422;2023-03-31T11:06:21;21.30;28.20
67194;DHT22;54121;53.508;49.422;2023-03-31T11:08:52;22.10;27.40
67194;DHT22;54121;53.508;49.422;2023-03-31T11:11:26;21.30;27.90
67194;DHT22;54121;53.508;49.422;2023-03-31T11:14:06;21.80;27.40
67194;DHT22;54121;53.508;49.422;2023-03-31T11:16:43;22.30;26.70
67194;DHT22;54121;53.508;49.422;2023-03-31T11:19:28;22.40;26.50
67194;DHT22;54121;53.508;49.422;2023-03-31T11:22:23;22.10;26.80
67194;DHT22;54121;53.508;49.422;2023-03-31T11:24:53;21.70;27.60
67194;DHT22;54121;53.508;49.422;2023-03-31T11:30:06;20.60;28.80
67194;DHT22;54121;53.508;49.422;2023-03-31T11:35:08;20.90;28.70
67194;DHT22;54121;53.508;49.422;2023-03-31T11:43:00;19.60;31.10
67194;DHT22;54121;53.508;49.422;2023-03-31T11:51:13;18.70;32.30
67194;DHT22;54121;53.508;49.422;2023-03-31T11:53:41;19.50;32.30
67194;DHT22;54121;53.508;49.422;2023-03-31T11:56:11;20.10;30.90
67194;DHT22;54121;53.508;49.422;2023-03-31T11:58:44;19.30;31.50
67194;DHT22;54121;53.508;49.422;2023-03-31T12:01:16;19.70;31.20
67194;DHT22;54121;53.508;49.422;2023-03-31T12:03:55;19.90;31.20
67194;DHT22;54121;53.508;49.422;2023-03-31T12:06:26;20.40;30.00
67194;DHT22;54121;53.508;49.422;2023-03-31T12:16:24;18.10;35.60
67194;DHT22;54121;53.508;49.422;2023-03-31T12:19:03;18.20;35.30
67194;DHT22;54121;53.508;49.422;2023-03-31T12:21:31;16.30;35.00
67194;DHT22;54121;53.508;49.422;2023-03-31T12:23:59;17.50;36.90
67194;DHT22;54121;53.508;49.422;2023-03-31T12:26:31;16.80;39.60
67194;DHT22;54121;53.508;49.422;2023-03-31T12:29:06;16.40;39.60
67194;DHT22;54121;53.508;49.422;2023-03-31T12:31:40;16.70;36.00
67194;DHT22;54121;53.508;49.422;2023-03-31T12:34:13;17.30;37.90
67194;DHT22;54121;53.508;49.422;2023-03-31T12:42:18;18.00;32.60
67194;DHT22;54121;53.508;49.422;2023-03-31T12:47:33;19.60;31.60
67194;DHT22;54121;53.508;49.422;2023-03-31T12:57:46;19.10;32.60
67194;DHT22;54121;53.508;49.422;2023-03-31T13:00:22;19.70;31.80
67194;DHT22;54121;53.508;49.422;2023-03-31T13:02:49;18.90;33.90
67194;DHT22;54121;53.508;49.422;2023-03-31T13:08:02;17.60;35.10
67194;DHT22;54121;53.508;49.422;2023-03-31T13:10:32;17.60;35.90
67194;DHT22;54121;53.508;49.422;2023-03-31T13:13:05;17.10;37.40
67194;DHT22;54121;53.508;49.422;2023-03-31T13:15:34;17.40;36.00
67194;DHT22;54121;53.508;49.422;2023-03-31T13:18:04;15.60;38.80
67194;DHT22;54121;53.508;49.422;2023-03-31T13:20:40;12.40;41.00
67194;DHT22;54121;53.508;49.422;2023-03-31T13:25:44;14.40;42.00
67194;DHT22;54121;53.508;49.422;2023-03-31T13:41:29;13.30;42.00
67194;DHT22;54121;53.508;49.422;2023-03-31T13:46:47;14.50;40.90
67194;DHT22;54121;53.508;49.422;2023-03-31T13:52:15;14.60;40.30
67194;DHT22;54121;53.508;49.422;2023-03-31T13:57:34;14.00;39.90
67194;DHT22;54121;53.508;49.422;2023-03-31T14:00:23;13.70;41.70
67194;DHT22;54121;53.508;49.422;2023-03-31T14:10:30;13.80;41.20
67194;DHT22;54121;53.508;49.422;2023-03-31T14:13:30;13.70;40.60
67194;DHT22;54121;53.508;49.422;2023-03-31T14:15:51;13.80;40.10
67194;DHT22;54121;53.508;49.422;2023-03-31T14:18:23;13.70;39.80
67194;DHT22;54121;53.508;49.422;2023-03-31T14:20:54;13.80;39.60
67194;DHT22;54121;53.508;49.422;2023-03-31T14:23:27;11.30;39.40
67194;DHT22;54121;53.508;49.422;2023-03-31T14:28:53;12.20;42.10
67194;DHT22;54121;53.508;49.422;2023-03-31T14:31:32;11.20;43.70
67194;DHT22;54121;53.508;49.422;2023-03-31T14:39:23;11.40;45.30
67194;DHT22;54121;53.508;49.422;2023-03-31T14:41:54;11.30;43.50
67194;DHT22;54121;53.508;49.422;2023-03-31T14:44:22;12.40;43.40
67194;DHT22;54121;53.508;49.422;2023-03-31T14:46:55;12.40;43.90
67194;DHT22;54121;53.508;49.422;2023-03-31T14:49:34;12.40;43.70
67194;DHT22;54121;53.508;49.422;2023-03-31T14:52:03;12.10;44.10
67194;DHT22;54121;53.508;49.422;2023-03-31T14:54:36;11.50;46.70
67194;DHT22;54121;53.508;49.422;2023-03-31T14:57:03;11.20;47.20
67194;DHT22;54121;53.508;49.422;2023-03-31T14:59:32;11.10;47.70
67194;DHT22;54121;53.508;49.422;2023-03-31T15:02:03;11.00;49.10
67194;DHT22;54121;53.508;49.422;2023-03-31T15:04:34;10.50;50.60
67194;DHT22;54121;53.508;49.422;2023-03-31T15:07:03;10.40;51.40
67194;DHT22;54121;53.508;49.422;2023-03-31T15:09:33;10.20;52.40
67194;DHT22;54121;53.508;49.422;2023-03-31T15:12:05;10.40;52.30
67194;DHT22;54121;53.508;49.422;2023-03-31T15:14:33;10.80;50.70
67194;DHT22;54121;53.508;49.422;2023-03-31T15:17:01;10.90;50.20
67194;DHT22;54121;53.508;49.422;2023-03-31T15:19:32;10.70;50.50
67194;DHT22;54121;53.508;49.422;2023-03-31T15:22:07;10.50;51.90
67194;DHT22;54121;53.508;49.422;2023-03-31T15:24:35;10.50;51.80
67194;DHT22;54121;53.508;49.422;2023-03-31T15:27:02;10.30;52.80
67194;DHT22;54121;53.508;49.422;2023-03-31T15:31:57;10.20;53.00
67194;DHT22;54121;53.508;49.422;2023-03-31T15:34:28;10.30;53.10
67194;DHT22;54121;53.508;49.422;2023-03-31T15:36:58;10.40;52.40
67194;DHT22;54121;53.508;49.422;2023-03-31T15:39:28;10.30;52.60
67194;DHT22;54121;53.508;49.422;2023-03-31T15:41:56;9.80;54.20
67194;DHT22;54121;53.508;49.422;2023-03-31T15:49:44;9.90;53.80
67194;DHT22;54121;53.508;49.422;2023-03-31T15:52:21;9.80;54.10
67194;DHT22;54121;53.508;49.422;2023-03-31T15:54:52;9.60;54.90
67194;DHT22;54121;53.508;49.422;2023-03-31T15:57:29;10.00;53.80
67194;DHT22;54121;53.508;49.422;2023-03-31T15:59:58;7.60;54.30
67194;DHT22;54121;53.508;49.422;2023-03-31T16:02:41;9.10;56.60
67194;DHT22;54121;53.508;49.422;2023-03-31T16:05:52;8.30;54.30
67194;DHT22;54121;53.508;49.422;2023-03-31T16:07:58;8.90;56.30
67194;DHT22;54121;53.508;49.422;2023-03-31T16:10:25;8.30;56.70
67194;DHT22;54121;53.508;49.422;2023-03-31T16:15:21;8.20;57.10
67194;DHT22;54121;53.508;49.422;2023-03-31T16:17:55;6.50;56.10
67194;DHT22;54121;53.508;49.422;2023-03-31T16:20:41;7.60;57.30
67194;DHT22;54121;53.508;49.422;2023-03-31T16:23:20;7.90;56.60
67194;DHT22;54121;53.508;49.422;2023-03-31T16:25:48;7.60;56.10
67194;DHT22;54121;53.508;49.422;2023-03-31T16:28:27;5.80;55.50
67194;DHT22;54121;53.508;49.422;2023-03-31T16:30:57;7.50;56.30
67194;DHT22;54121;53.508;49.422;2023-03-31T16:33:27;7.10;55.10
67194;DHT22;54121;53.508;49.422;2023-03-31T16:35:55;7.20;55.50
67194;DHT22;54121;53.508;49.422;2023-03-31T16:38:22;6.00;55.10
67194;DHT22;54121;53.508;49.422;2023-03-31T16:40:51;7.10;55.60
67194;DHT22;54121;53.508;49.422;2023-03-31T16:43:27;7.30;55.20
67194;DHT22;54121;53.508;49.422;2023-03-31T16:45:54;7.30;54.40
67194;DHT22;54121;53.508;49.422;2023-03-31T16:48:22;7.30;54.00
67194;DHT22;54121;53.508;49.422;2023-03-31T16:50:53;5.20;52.60
67194;DHT22;54121;53.508;49.422;2023-03-31T16:53:23;7.40;53.50
67194;DHT22;54121;53.508;49.422;2023-03-31T16:55:52;7.30;53.30
67194;DHT22;54121;53.508;49.422;2023-03-31T16:58:18;7.30;53.20
67194;DHT22;54121;53.508;49.422;2023-03-31T17:00:47;7.20;52.90
67194;DHT22;54121;53.508;49.422;2023-03-31T17:03:15;7.20;52.80
67194;DHT22;54121;53.508;49.422;2023-03-31T17:05:45;7.20;52.40
67194;DHT22;54121;53.508;49.422;2023-03-31T17:08:12;7.20;52.40
67194;DHT22;54121;53.508;49.422;2023-03-31T17:10:41;7.30;51.90
67194;DHT22;54121;53.508;49.422;2023-03-31T17:13:17;7.20;52.00
67194;DHT22;54121;53.508;49.422;2023-03-31T17:15:43;7.20;51.80
67194;DHT22;54121;53.508;49.422;2023-03-31T17:18:12;7.30;51.20
67194;DHT22;54121;53.508;49.422;2023-03-31T17:20:41;7.20;51.60
67194;DHT22;54121;53.508;49.422;2023-03-31T17:23:07;7.10;51.40
67194;DHT22;54121;53.508;49.422;2023-03-31T17:25:36;7.10;51.40
67194;DHT22;54121;53.508;49.422;2023-03-31T17:28:07;7.10;51.70
67194;DHT22;54121;53.508;49.422;2023-03-31T17:30:35;7.10;51.70
67194;DHT22;54121;53.508;49.422;2023-03-31T17:33:05;7.20;51.50
67194;DHT22;54121;53.508;49.422;2023-03-31T17:35:32;7.20;50.90
67194;DHT22;54121;53.508;49.422;2023-03-31T17:38:00;7.30;50.70
67194;DHT22;54121;53.508;49.422;2023-03-31T17:40:29;7.40;50.40
67194;DHT22;54121;53.508;49.422;2023-03-31T17:43:00;7.40;50.40
67194;DHT22;54121;53.508;49.422;2023-03-31T17:45:27;7.40;49.80
67194;DHT22;54121;53.508;49.422;2023-03-31T17:47:54;7.40;50.10
67194;DHT22;54121;53.508;49.422;2023-03-31T17:50:23;7.40;50.20
67194;DHT22;54121;53.508;49.422;2023-03-31T17:52:50;7.40;50.30
67194;DHT22;54121;53.508;49.422;2023-03-31T17:55:17;7.20;50.10
67194;DHT22;54121;53.508;49.422;2023-03-31T17:57:44;7.30;50.70
67194;DHT22;54121;53.508;49.422;2023-03-31T18:00:11;7.30;50.70
67194;DHT22;54121;53.508;49.422;2023-03-31T18:02:40;7.30;50.30
67194;DHT22;54121;53.508;49.422;2023-03-31T18:05:09;7.30;50.40
67194;DHT22;54121;53.508;49.422;2023-03-31T18:07:36;7.20;50.80